Time;durP1;ratioP1;P1;durP2;ratioP2;P2;SDS_P1;SDS_P2;PMS_P1;PMS_P2;Temp;Humidity;BMP_temperature;BMP_pressure;BME280_temperature;BME280_humidity;BME280_pressure;Samples;Min_cycle;Max_cycle;Signal;HPM_P1;HPM_P2
2022/04/24 00:01:35;;;;;;;6.35;5.70;;;12.20;78.00;;;;;;5091825;28;20228;-64
2022/04/24 00:04:02;;;;;;;7.38;5.63;;;12.20;78.30;;;;;;5080283;28;20230;-64
2022/04/24 00:06:31;;;;;;;5.63;5.03;;;12.10;78.50;;;;;;5092563;28;20226;-64
2022/04/24 00:08:59;;;;;;;7.03;4.50;;;12.20;78.80;;;;;;5091015;28;20270;-65
2022/04/24 00:11:26;;;;;;;5.10;4.60;;;12.10;79.00;;;;;;5088602;28;20558;-64
2022/04/24 00:13:53;;;;;;;9.77;5.85;;;12.10;79.20;;;;;;5093366;28;20328;-64
2022/04/24 00:16:20;;;;;;;6.20;5.18;;;12.10;79.30;;;;;;5084562;28;20235;-63
2022/04/24 00:18:47;;;;;;;5.47;4.80;;;12.10;79.60;;;;;;5081865;28;20554;-64
2022/04/24 00:21:14;;;;;;;5.63;4.32;;;12.00;79.80;;;;;;5092707;28;20238;-64
2022/04/24 00:23:41;;;;;;;5.60;4.82;;;12.00;80.10;;;;;;5093431;28;20302;-64
2022/04/24 00:26:09;;;;;;;6.03;4.72;;;12.00;80.60;;;;;;5092601;28;20305;-63
2022/04/24 00:28:36;;;;;;;6.85;4.53;;;11.90;80.90;;;;;;5093179;28;20314;-63
2022/04/24 00:31:03;;;;;;;5.75;5.25;;;11.80;81.10;;;;;;5092206;28;20234;-64
2022/04/24 00:33:30;;;;;;;4.95;4.53;;;11.80;81.40;;;;;;5093191;28;20292;-65
2022/04/24 00:35:57;;;;;;;5.57;4.97;;;11.80;81.80;;;;;;5093225;28;20223;-64
2022/04/24 00:38:25;;;;;;;6.47;5.10;;;11.80;81.80;;;;;;5092587;28;20350;-64
2022/04/24 00:40:54;;;;;;;5.20;4.80;;;11.80;82.00;;;;;;5092590;28;20546;-64
2022/04/24 00:43:22;;;;;;;9.85;6.07;;;11.80;82.20;;;;;;5092750;28;20278;-64
2022/04/24 00:45:49;;;;;;;6.90;5.38;;;11.70;82.50;;;;;;5092649;28;20230;-64
2022/04/24 00:48:16;;;;;;;6.50;5.93;;;11.80;82.80;;;;;;5092249;28;20234;-63
2022/04/24 00:50:43;;;;;;;5.88;5.30;;;11.70;83.00;;;;;;5092546;28;20693;-64
2022/04/24 00:53:10;;;;;;;7.68;6.00;;;11.70;83.20;;;;;;5092523;28;20306;-63
2022/04/24 00:55:38;;;;;;;5.90;5.30;;;11.70;83.30;;;;;;5085285;28;20231;-63
2022/04/24 00:58:05;;;;;;;10.15;6.22;;;11.60;83.60;;;;;;5071724;28;20252;-64
2022/04/24 01:00:33;;;;;;;8.13;5.68;;;11.60;83.70;;;;;;5078612;28;20235;-64
2022/04/24 01:03:02;;;;;;;8.32;6.35;;;11.70;84.00;;;;;;5092686;28;20223;-64
2022/04/24 01:05:30;;;;;;;6.45;5.20;;;11.60;84.30;;;;;;5092506;28;20253;-65
2022/04/24 01:07:56;;;;;;;7.50;5.55;;;11.60;84.60;;;;;;5092583;28;20227;-63
2022/04/24 01:10:23;;;;;;;8.10;6.25;;;11.60;84.80;;;;;;5102607;28;20238;-63
2022/04/24 01:12:50;;;;;;;7.70;5.70;;;11.50;85.20;;;;;;5092391;28;20238;-64
2022/04/24 01:15:17;;;;;;;6.35;5.75;;;11.50;85.50;;;;;;5090232;28;20594;-64
2022/04/24 01:17:45;;;;;;;6.22;5.22;;;11.50;85.80;;;;;;5092623;28;20223;-64
2022/04/24 01:20:14;;;;;;;6.75;6.13;;;11.40;85.90;;;;;;5091939;28;20227;-65
2022/04/24 01:22:42;;;;;;;6.65;5.07;;;11.50;86.20;;;;;;5092477;28;20231;-64
2022/04/24 01:25:10;;;;;;;8.20;6.00;;;11.40;86.20;;;;;;5092115;28;20238;-63
2022/04/24 01:27:37;;;;;;;8.32;6.03;;;11.30;86.70;;;;;;5092587;28;20243;-64
2022/04/24 01:30:05;;;;;;;6.93;4.88;;;11.30;87.10;;;;;;5092013;28;20223;-64
2022/04/24 01:32:33;;;;;;;10.88;6.03;;;11.30;87.20;;;;;;5091934;28;20230;-64
2022/04/24 01:35:00;;;;;;;5.55;4.97;;;11.30;87.60;;;;;;5079013;28;20298;-64
2022/04/24 01:37:27;;;;;;;5.60;5.10;;;11.30;87.80;;;;;;5091945;28;20223;-63
2022/04/24 01:39:56;;;;;;;6.47;5.78;;;11.30;87.80;;;;;;5092385;28;20219;-64
2022/04/24 01:42:23;;;;;;;6.43;5.57;;;11.20;88.30;;;;;;5092042;28;20681;-63
2022/04/24 01:44:49;;;;;;;7.60;6.68;;;11.20;88.50;;;;;;5092531;28;20220;-63
2022/04/24 01:47:16;;;;;;;7.13;6.43;;;11.20;88.60;;;;;;5092018;28;20227;-63
2022/04/24 01:49:43;;;;;;;7.35;5.78;;;11.20;88.80;;;;;;5092323;28;20704;-63
2022/04/24 01:52:10;;;;;;;7.50;6.70;;;11.20;88.80;;;;;;5091503;28;20231;-63
2022/04/24 01:54:37;;;;;;;6.47;5.88;;;11.20;88.90;;;;;;5092566;28;20258;-63
2022/04/24 01:57:06;;;;;;;8.30;6.13;;;11.20;89.30;;;;;;5086607;28;20223;-64
2022/04/24 01:59:32;;;;;;;7.15;5.95;;;11.20;89.30;;;;;;5093905;28;20224;-64
2022/04/24 02:01:59;;;;;;;8.05;5.75;;;11.10;89.30;;;;;;5095904;28;20219;-64
2022/04/24 02:04:26;;;;;;;5.72;5.25;;;11.10;89.30;;;;;;5095581;28;20700;-64
2022/04/24 02:06:53;;;;;;;10.02;5.95;;;11.00;89.50;;;;;;5095949;28;20242;-64
2022/04/24 02:09:20;;;;;;;6.88;6.10;;;10.90;89.90;;;;;;5101706;28;20222;-64
2022/04/24 02:11:47;;;;;;;6.60;5.90;;;10.90;90.00;;;;;;5096540;28;20231;-64
2022/04/24 02:14:15;;;;;;;7.70;6.72;;;10.90;90.20;;;;;;5095543;28;20294;-64
2022/04/24 02:16:42;;;;;;;7.55;5.90;;;10.90;90.30;;;;;;5095760;28;20565;-64
2022/04/24 02:19:08;;;;;;;9.40;6.18;;;10.90;90.40;;;;;;5095764;28;20242;-64
2022/04/24 02:21:35;;;;;;;9.05;6.13;;;10.90;90.40;;;;;;5095162;28;20227;-64
2022/04/24 02:24:02;;;;;;;7.38;6.18;;;10.90;90.30;;;;;;5095673;28;20246;-64
2022/04/24 02:26:29;;;;;;;9.13;6.22;;;10.90;90.40;;;;;;5095123;28;20223;-64
2022/04/24 02:28:55;;;;;;;6.25;5.65;;;10.80;90.50;;;;;;5095518;28;20220;-64
2022/04/24 02:31:24;;;;;;;6.32;5.70;;;10.90;90.50;;;;;;5091671;28;20224;-64
2022/04/24 02:33:51;;;;;;;6.88;5.95;;;10.80;90.60;;;;;;5093930;28;20216;-64
2022/04/24 02:36:18;;;;;;;7.45;5.88;;;10.80;90.50;;;;;;5094410;28;20215;-64
2022/04/24 02:38:45;;;;;;;10.13;7.00;;;10.90;90.60;;;;;;5094875;28;20565;-64
2022/04/24 02:41:12;;;;;;;8.75;5.72;;;10.90;90.70;;;;;;5094589;28;20372;-64
2022/04/24 02:43:38;;;;;;;7.13;6.10;;;10.90;90.60;;;;;;5094414;28;20216;-64
2022/04/24 02:46:05;;;;;;;6.05;5.47;;;11.00;90.70;;;;;;5094971;28;20219;-64
2022/04/24 02:48:33;;;;;;;6.63;4.72;;;10.90;90.50;;;;;;5094816;28;20571;-64
2022/04/24 02:51:00;;;;;;;7.63;4.78;;;10.90;90.50;;;;;;5095191;28;20227;-64
2022/04/24 02:53:27;;;;;;;6.70;5.75;;;10.90;91.00;;;;;;5094869;28;20216;-65
2022/04/24 02:55:54;;;;;;;8.65;5.53;;;10.90;90.50;;;;;;5095124;28;20223;-65
2022/04/24 02:58:21;;;;;;;7.50;6.18;;;10.90;90.60;;;;;;5094677;28;20232;-62
2022/04/24 03:00:50;;;;;;;6.32;5.68;;;10.80;90.70;;;;;;5094805;28;20312;-63
2022/04/24 03:03:18;;;;;;;8.57;6.03;;;10.90;90.70;;;;;;5093553;28;20204;-64
2022/04/24 03:05:46;;;;;;;10.10;7.70;;;10.80;90.60;;;;;;5095162;28;20216;-64
2022/04/24 03:08:14;;;;;;;9.73;6.05;;;10.80;90.70;;;;;;5095140;28;20242;-63
2022/04/24 03:10:41;;;;;;;6.15;5.55;;;10.70;90.80;;;;;;5093985;28;20226;-63
2022/04/24 03:13:08;;;;;;;6.53;5.65;;;10.70;90.90;;;;;;5094883;28;20575;-64
2022/04/24 03:15:36;;;;;;;6.97;5.97;;;10.70;90.90;;;;;;5094541;28;20228;-64
2022/04/24 03:18:03;;;;;;;8.32;6.28;;;10.70;91.00;;;;;;5094999;28;20564;-64
2022/04/24 03:20:30;;;;;;;7.60;5.82;;;10.70;90.90;;;;;;5094410;28;20222;-64
2022/04/24 03:22:58;;;;;;;6.88;6.28;;;10.70;91.10;;;;;;5094709;28;20677;-64
2022/04/24 03:25:25;;;;;;;6.85;6.20;;;10.70;91.00;;;;;;5094445;28;20223;-64
2022/04/24 03:27:51;;;;;;;6.55;5.43;;;10.60;91.20;;;;;;5094547;28;20222;-64
2022/04/24 03:30:19;;;;;;;7.38;5.65;;;10.60;91.40;;;;;;5094086;28;20226;-64
2022/04/24 03:32:45;;;;;;;6.50;5.78;;;10.60;91.30;;;;;;5094503;28;20246;-63
2022/04/24 03:35:12;;;;;;;6.28;5.45;;;10.50;91.30;;;;;;5094323;28;20220;-63
2022/04/24 03:37:41;;;;;;;10.32;6.30;;;10.50;91.50;;;;;;5093869;28;20231;-63
2022/04/24 03:40:10;;;;;;;8.30;5.40;;;10.40;91.60;;;;;;5094328;28;20249;-64
2022/04/24 03:42:37;;;;;;;7.60;5.68;;;10.40;91.70;;;;;;5093721;28;20228;-63
2022/04/24 03:45:06;;;;;;;7.93;7.13;;;10.50;91.90;;;;;;5094302;28;20577;-64
2022/04/24 03:47:33;;;;;;;6.97;5.82;;;10.40;91.90;;;;;;5093866;28;20871;-64
2022/04/24 03:50:00;;;;;;;10.18;6.53;;;10.40;91.90;;;;;;5093979;28;20235;-64
2022/04/24 03:52:27;;;;;;;6.82;5.60;;;10.40;91.90;;;;;;5093614;28;20219;-64
2022/04/24 03:54:54;;;;;;;5.97;5.32;;;10.30;92.00;;;;;;5094344;28;20674;-64
2022/04/24 03:57:22;;;;;;;9.60;6.80;;;10.30;92.20;;;;;;5093728;28;20219;-64
2022/04/24 03:59:48;;;;;;;8.05;6.70;;;10.20;92.20;;;;;;5093659;28;20230;-64
2022/04/24 04:02:15;;;;;;;13.25;6.13;;;10.10;92.40;;;;;;5093997;28;20224;-64
2022/04/24 04:04:42;;;;;;;5.85;4.93;;;10.10;92.60;;;;;;5093391;28;20227;-64
2022/04/24 04:07:09;;;;;;;7.15;6.30;;;10.10;93.10;;;;;;5093773;28;20230;-64
2022/04/24 04:09:36;;;;;;;7.30;6.50;;;10.10;92.90;;;;;;5093542;28;20220;-64
2022/04/24 04:12:03;;;;;;;7.03;5.65;;;10.10;93.10;;;;;;5093625;28;20228;-64
2022/04/24 04:14:31;;;;;;;9.05;7.40;;;10.00;93.10;;;;;;5093428;28;20255;-64
2022/04/24 04:16:58;;;;;;;7.32;6.63;;;10.10;93.20;;;;;;5093762;28;20308;-64
2022/04/24 04:19:25;;;;;;;8.25;6.55;;;10.00;93.20;;;;;;5093271;28;20215;-64
2022/04/24 04:21:52;;;;;;;8.40;5.55;;;10.00;93.40;;;;;;5092944;28;20235;-64
2022/04/24 04:24:19;;;;;;;8.35;6.50;;;10.00;93.40;;;;;;5093552;28;20697;-64
2022/04/24 04:26:46;;;;;;;7.65;6.90;;;10.00;93.50;;;;;;5093048;28;20629;-64
2022/04/24 04:29:12;;;;;;;9.15;6.40;;;10.00;93.50;;;;;;5093567;28;20230;-64
2022/04/24 04:31:41;;;;;;;7.90;6.80;;;10.10;93.70;;;;;;5092699;28;20228;-64
2022/04/24 04:34:07;;;;;;;8.48;6.93;;;10.10;93.50;;;;;;5093530;28;20223;-64
2022/04/24 04:36:34;;;;;;;14.43;6.85;;;10.20;93.60;;;;;;5093112;28;20293;-64
2022/04/24 04:39:01;;;;;;;6.85;6.00;;;10.20;93.60;;;;;;5093161;28;20230;-64
2022/04/24 04:41:31;;;;;;;9.88;6.95;;;10.20;93.50;;;;;;5092835;28;20223;-64
2022/04/24 04:43:58;;;;;;;11.80;6.35;;;10.20;93.50;;;;;;5093632;28;20219;-64
2022/04/24 04:46:25;;;;;;;7.50;6.68;;;10.20;93.60;;;;;;5092688;28;20219;-64
2022/04/24 04:48:53;;;;;;;7.30;5.45;;;10.10;93.70;;;;;;5093294;28;20561;-64
2022/04/24 04:51:20;;;;;;;10.80;7.78;;;10.10;94.00;;;;;;5092888;28;20302;-64
2022/04/24 04:53:47;;;;;;;9.00;8.00;;;10.10;93.90;;;;;;5092844;28;20231;-64
2022/04/24 04:56:15;;;;;;;8.93;6.22;;;10.10;94.20;;;;;;5093142;28;20219;-64
2022/04/24 04:58:41;;;;;;;10.60;6.75;;;10.10;94.20;;;;;;5092651;28;20239;-64
2022/04/24 05:01:08;;;;;;;13.30;6.45;;;10.10;94.30;;;;;;5092767;28;20223;-65
2022/04/24 05:03:35;;;;;;;9.75;6.90;;;10.10;94.40;;;;;;5092604;28;20227;-64
2022/04/24 05:06:03;;;;;;;8.95;6.43;;;10.20;94.50;;;;;;5093073;28;20230;-64
2022/04/24 05:08:30;;;;;;;7.32;6.07;;;10.20;94.50;;;;;;5092644;28;20226;-65
2022/04/24 05:10:57;;;;;;;8.98;6.85;;;10.20;94.40;;;;;;5092769;28;20238;-64
2022/04/24 05:13:24;;;;;;;7.88;7.07;;;10.20;94.40;;;;;;5092729;28;20219;-64
2022/04/24 05:15:51;;;;;;;9.23;7.13;;;10.30;94.50;;;;;;5092709;28;20238;-64
2022/04/24 05:18:18;;;;;;;7.63;6.85;;;10.30;94.40;;;;;;5092914;28;20224;-64
2022/04/24 05:20:45;;;;;;;9.10;7.72;;;10.30;94.40;;;;;;5092321;28;20664;-64
2022/04/24 05:23:13;;;;;;;7.88;6.40;;;10.40;94.60;;;;;;5092726;28;20219;-64
2022/04/24 05:25:40;;;;;;;11.00;7.38;;;10.40;94.40;;;;;;5092464;28;20228;-64
2022/04/24 05:28:07;;;;;;;9.52;7.85;;;10.50;94.40;;;;;;5092596;28;20235;-64
2022/04/24 05:30:34;;;;;;;8.07;6.85;;;10.50;94.40;;;;;;5092212;28;20234;-64
2022/04/24 05:33:01;;;;;;;10.27;7.40;;;10.50;94.40;;;;;;5094194;28;20219;-64
2022/04/24 05:35:28;;;;;;;9.65;6.82;;;10.50;94.50;;;;;;5096407;28;20222;-65
2022/04/24 05:37:55;;;;;;;9.73;7.32;;;10.50;94.60;;;;;;5096636;28;20222;-65
2022/04/24 05:40:24;;;;;;;7.70;6.30;;;10.50;94.50;;;;;;5096812;28;20215;-64
2022/04/24 05:42:54;;;;;;;9.05;8.02;;;10.50;94.60;;;;;;5096193;28;20227;-64
2022/04/24 05:45:22;;;;;;;9.25;7.65;;;10.60;94.50;;;;;;5096461;28;20231;-64
2022/04/24 05:47:49;;;;;;;8.23;7.40;;;10.60;94.40;;;;;;5096176;28;20604;-65
2022/04/24 05:50:16;;;;;;;9.02;7.43;;;10.70;94.40;;;;;;5096362;28;20223;-64
2022/04/24 05:52:43;;;;;;;7.97;7.05;;;10.80;94.50;;;;;;5095850;28;20227;-64
2022/04/24 05:55:10;;;;;;;9.02;7.25;;;10.80;94.20;;;;;;5096382;28;20226;-64
2022/04/24 05:57:39;;;;;;;7.45;6.65;;;10.90;94.10;;;;;;5095978;28;20247;-64
2022/04/24 06:00:08;;;;;;;7.90;6.53;;;11.00;94.10;;;;;;5096139;28;20219;-64
2022/04/24 06:02:35;;;;;;;8.85;7.13;;;11.10;94.10;;;;;;5095839;28;20894;-65
2022/04/24 06:05:02;;;;;;;8.25;6.60;;;11.20;94.00;;;;;;5096278;28;20254;-64
2022/04/24 06:07:29;;;;;;;8.63;7.20;;;11.20;93.70;;;;;;5096370;28;20223;-64
2022/04/24 06:09:56;;;;;;;8.85;7.15;;;11.30;93.40;;;;;;5096098;28;20211;-65
2022/04/24 06:12:22;;;;;;;8.40;7.47;;;11.30;93.40;;;;;;5095737;28;20227;-64
2022/04/24 06:14:50;;;;;;;6.93;6.22;;;11.30;93.50;;;;;;5095621;28;20238;-64
2022/04/24 06:17:17;;;;;;;7.90;6.90;;;11.40;93.50;;;;;;5095976;28;20224;-64
2022/04/24 06:19:44;;;;;;;7.30;6.60;;;11.40;93.50;;;;;;5095477;28;20219;-64
2022/04/24 06:22:11;;;;;;;7.18;6.47;;;11.50;93.40;;;;;;5095853;28;20219;-65
2022/04/24 06:24:38;;;;;;;9.07;6.68;;;11.50;93.20;;;;;;5094963;28;20674;-66
2022/04/24 06:27:05;;;;;;;7.90;6.97;;;11.50;93.40;;;;;;5095888;28;20230;-65
2022/04/24 06:29:32;;;;;;;7.30;6.60;;;11.50;93.40;;;;;;5095829;28;20223;-65
2022/04/24 06:32:00;;;;;;;8.07;6.40;;;11.60;93.40;;;;;;5095012;28;20227;-65
2022/04/24 06:34:27;;;;;;;8.27;7.43;;;11.60;93.50;;;;;;5095805;28;20258;-64
2022/04/24 06:36:54;;;;;;;8.68;7.05;;;11.70;93.50;;;;;;5095250;28;20230;-63
2022/04/24 06:39:21;;;;;;;8.93;7.80;;;11.90;93.50;;;;;;5095591;28;20222;-64
2022/04/24 06:41:48;;;;;;;8.88;7.80;;;11.90;93.40;;;;;;5095035;28;20234;-66
2022/04/24 06:44:14;;;;;;;8.93;8.02;;;12.00;93.30;;;;;;5094759;28;20223;-64
2022/04/24 06:46:43;;;;;;;8.82;7.32;;;12.10;93.10;;;;;;5094615;28;20227;-66
2022/04/24 06:49:12;;;;;;;8.32;7.53;;;12.20;93.00;;;;;;5095571;28;20688;-64
2022/04/24 06:51:39;;;;;;;8.77;6.50;;;12.30;92.90;;;;;;5094712;28;20230;-67
2022/04/24 06:54:06;;;;;;;9.00;7.63;;;12.40;92.70;;;;;;5095382;28;20227;-65
2022/04/24 06:56:32;;;;;;;8.38;7.25;;;12.50;92.40;;;;;;5095302;28;20219;-64
2022/04/24 06:58:59;;;;;;;8.82;7.53;;;12.60;92.10;;;;;;5094817;28;20242;-64
2022/04/24 07:01:26;;;;;;;7.40;6.70;;;12.70;91.90;;;;;;5095116;28;20231;-63
2022/04/24 07:03:53;;;;;;;8.15;7.28;;;12.80;91.60;;;;;;5094829;28;20223;-63
2022/04/24 07:06:21;;;;;;;7.05;6.38;;;12.80;91.40;;;;;;5095148;28;20697;-64
2022/04/24 07:08:48;;;;;;;10.73;6.93;;;12.90;91.40;;;;;;5094539;28;20234;-64
2022/04/24 07:11:15;;;;;;;7.40;6.80;;;13.10;91.30;;;;;;5094948;28;20223;-64
2022/04/24 07:13:42;;;;;;;8.15;7.30;;;13.20;91.10;;;;;;5094270;28;20223;-66
2022/04/24 07:16:08;;;;;;;8.32;7.50;;;13.30;90.80;;;;;;5095140;28;20230;-64
2022/04/24 07:18:35;;;;;;;9.20;8.07;;;13.40;90.80;;;;;;5094837;28;20215;-65
2022/04/24 07:21:02;;;;;;;9.02;6.90;;;13.50;90.50;;;;;;5094552;28;20563;-64
2022/04/24 07:23:31;;;;;;;7.65;6.13;;;13.60;90.30;;;;;;5094611;28;20233;-64
2022/04/24 07:25:58;;;;;;;7.07;6.30;;;13.70;90.20;;;;;;5094415;28;20226;-64
2022/04/24 07:28:26;;;;;;;8.52;7.65;;;13.80;90.10;;;;;;5094587;28;20215;-63
2022/04/24 07:30:52;;;;;;;13.40;7.77;;;13.90;89.50;;;;;;5093954;28;20227;-65
2022/04/24 07:33:19;;;;;;;10.95;6.97;;;14.00;88.60;;;;;;5094496;28;20461;-63
2022/04/24 07:35:46;;;;;;;7.35;6.65;;;14.00;87.50;;;;;;5094045;28;20235;-64
2022/04/24 07:38:13;;;;;;;9.38;6.97;;;14.00;87.10;;;;;;5094356;28;20313;-65
2022/04/24 07:40:41;;;;;;;8.50;7.13;;;14.20;87.30;;;;;;5093996;28;20219;-64
2022/04/24 07:43:10;;;;;;;7.73;6.33;;;14.30;87.40;;;;;;5094328;28;20223;-65
2022/04/24 07:45:38;;;;;;;6.75;6.05;;;14.30;86.20;;;;;;5094320;28;20472;-65
2022/04/24 07:48:06;;;;;;;7.53;6.83;;;14.40;86.20;;;;;;5093730;28;20295;-65
2022/04/24 07:50:35;;;;;;;8.60;5.80;;;14.40;84.90;;;;;;5093887;28;20511;-64
2022/04/24 07:53:03;;;;;;;7.40;6.07;;;14.50;85.20;;;;;;5093600;28;20466;-66
2022/04/24 07:55:30;;;;;;;7.93;6.50;;;14.60;85.00;;;;;;5094123;28;20589;-64
2022/04/24 07:57:59;;;;;;;8.70;6.73;;;14.70;84.90;;;;;;5093597;28;20465;-64
2022/04/24 08:00:28;;;;;;;8.30;6.50;;;14.70;84.90;;;;;;5094170;28;20796;-64
2022/04/24 08:02:57;;;;;;;8.20;7.30;;;14.90;85.30;;;;;;5093449;28;20470;-64
2022/04/24 08:05:25;;;;;;;7.33;6.73;;;15.10;84.90;;;;;;5093888;28;20465;-65
2022/04/24 08:07:52;;;;;;;6.57;5.97;;;15.20;83.50;;;;;;5093413;28;20473;-63
2022/04/24 08:10:19;;;;;;;9.23;5.60;;;15.20;83.10;;;;;;5093854;28;20472;-64
2022/04/24 08:12:46;;;;;;;6.97;6.47;;;15.30;81.10;;;;;;5093032;28;20466;-64
2022/04/24 08:15:15;;;;;;;11.33;5.40;;;15.40;81.20;;;;;;5093775;28;20780;-65
2022/04/24 08:17:42;;;;;;;6.97;5.43;;;15.40;79.80;;;;;;5093637;28;20469;-64
2022/04/24 08:20:10;;;;;;;5.90;5.33;;;15.40;77.90;;;;;;5093277;28;20533;-64
2022/04/24 08:22:39;;;;;;;6.30;5.60;;;15.50;77.20;;;;;;5093473;28;20462;-64
2022/04/24 08:25:07;;;;;;;7.30;5.60;;;15.40;75.30;;;;;;5093456;28;20473;-65
2022/04/24 08:27:34;;;;;;;6.77;5.07;;;15.40;75.00;;;;;;5093517;28;20534;-65
2022/04/24 08:30:01;;;;;;;7.23;5.10;;;15.50;75.20;;;;;;5093060;28;20465;-64
2022/04/24 08:32:29;;;;;;;5.60;5.10;;;15.60;75.00;;;;;;5092888;28;20466;-64
2022/04/24 08:34:57;;;;;;;5.80;5.20;;;15.80;74.60;;;;;;5092993;28;20457;-64
2022/04/24 08:37:24;;;;;;;6.07;4.87;;;16.00;74.80;;;;;;5093515;28;20544;-63
2022/04/24 08:39:51;;;;;;;5.93;5.40;;;16.00;72.30;;;;;;5092906;28;20959;-65
2022/04/24 08:42:21;;;;;;;5.13;4.73;;;16.10;72.80;;;;;;5093239;28;20473;-63
2022/04/24 08:44:48;;;;;;;5.90;5.40;;;16.20;71.50;;;;;;5093170;28;20869;-64
2022/04/24 08:47:16;;;;;;;5.77;5.07;;;16.30;71.00;;;;;;5093011;28;20458;-65
2022/04/24 08:49:45;;;;;;;5.00;4.57;;;16.30;70.30;;;;;;5093184;28;20468;-65
2022/04/24 08:52:12;;;;;;;6.50;4.83;;;16.40;71.50;;;;;;5092572;28;20453;-65
2022/04/24 08:54:41;;;;;;;5.00;4.20;;;16.40;70.40;;;;;;5093206;28;20797;-65
2022/04/24 08:57:08;;;;;;;6.07;5.47;;;16.50;69.80;;;;;;5092740;28;20769;-65
2022/04/24 08:59:35;;;;;;;5.20;4.70;;;16.60;69.70;;;;;;5092842;28;20469;-65
2022/04/24 09:02:02;;;;;;;5.40;4.90;;;16.70;69.90;;;;;;5092390;28;20968;-64
2022/04/24 09:04:32;;;;;;;6.70;5.73;;;16.70;68.50;;;;;;5092768;28;20477;-65
2022/04/24 09:07:02;;;;;;;5.10;4.70;;;16.70;68.60;;;;;;5092099;28;20467;-65
2022/04/24 09:09:31;;;;;;;6.40;5.23;;;16.80;68.20;;;;;;5092743;28;20477;-65
2022/04/24 09:12:07;;;;;;;5.93;5.40;;;16.70;68.30;;;;;;5092310;28;20977;-64
2022/04/24 09:14:34;;;;;;;5.20;4.70;;;16.80;68.30;;;;;;5092863;28;20466;-65
2022/04/24 09:17:05;;;;;;;5.70;5.17;;;16.80;68.60;;;;;;5092348;28;20470;-65
2022/04/24 09:19:33;;;;;;;6.03;5.07;;;16.80;68.40;;;;;;5092941;28;20472;-65
2022/04/24 09:22:06;;;;;;;5.10;4.70;;;16.90;69.10;;;;;;5092323;28;20472;-64
2022/04/24 09:24:42;;;;;;;6.00;4.37;;;16.90;69.10;;;;;;5072689;28;20462;-64
2022/04/24 09:27:09;;;;;;;4.57;4.20;;;17.00;68.90;;;;;;5072251;28;20474;-64
2022/04/24 09:29:36;;;;;;;6.23;4.57;;;17.00;68.60;;;;;;5072592;28;20468;-64
2022/04/24 09:32:10;;;;;;;5.20;4.80;;;17.00;68.20;;;;;;5071898;28;20544;-64
2022/04/24 09:34:37;;;;;;;6.00;5.50;;;17.10;68.90;;;;;;5072530;28;20465;-64
2022/04/24 09:37:06;;;;;;;6.73;6.00;;;17.20;68.50;;;;;;5071999;28;20471;-64
2022/04/24 09:39:35;;;;;;;6.97;5.80;;;17.30;67.20;;;;;;5072499;28;20477;-63
2022/04/24 09:42:03;;;;;;;6.30;5.70;;;17.30;67.30;;;;;;5072054;28;20920;-64
2022/04/24 09:44:37;;;;;;;7.70;5.30;;;17.30;66.80;;;;;;5072528;28;20464;-64
2022/04/24 09:47:05;;;;;;;6.07;5.57;;;17.40;66.90;;;;;;5071933;28;20869;-64
2022/04/24 09:49:36;;;;;;;6.00;5.40;;;17.30;66.90;;;;;;5073904;28;20477;-64
2022/04/24 09:52:07;;;;;;;5.80;5.30;;;17.30;66.90;;;;;;5091951;28;20533;-63
2022/04/24 09:54:34;;;;;;;5.73;5.10;;;17.50;67.20;;;;;;5092530;28;20467;-64
2022/04/24 09:57:03;;;;;;;5.60;5.10;;;17.50;67.50;;;;;;5092092;28;20472;-65
2022/04/24 09:59:30;;;;;;;6.13;5.40;;;17.60;67.70;;;;;;5092374;28;20469;-65
2022/04/24 10:01:57;;;;;;;5.67;5.17;;;17.70;68.20;;;;;;5091841;28;20468;-66
2022/04/24 10:04:25;;;;;;;5.40;5.00;;;17.80;68.20;;;;;;5092564;28;20465;-65
2022/04/24 10:06:52;;;;;;;6.27;5.77;;;17.80;67.10;;;;;;5092395;28;20469;-65
2022/04/24 10:09:23;;;;;;;5.93;5.33;;;17.80;66.50;;;;;;5092096;28;20468;-65
2022/04/24 10:11:50;;;;;;;6.33;5.83;;;17.80;66.50;;;;;;5092357;28;20469;-65
2022/04/24 10:14:22;;;;;;;6.03;5.53;;;17.90;65.80;;;;;;5091722;28;20950;-65
2022/04/24 10:17:14;;;;;;;6.23;5.63;;;17.80;65.50;;;;;;5092414;28;20993;-64
2022/04/24 10:20:14;;;;;;;7.77;5.67;;;17.70;64.50;;;;;;5092735;28;20466;-66
2022/04/24 10:22:45;;;;;;;5.60;5.10;;;17.70;64.80;;;;;;5095653;28;20819;-64
2022/04/24 10:25:16;;;;;;;6.50;5.50;;;17.70;65.20;;;;;;5096020;28;20529;-65
2022/04/24 10:27:45;;;;;;;5.47;4.97;;;17.70;66.50;;;;;;5095284;28;20525;-65
2022/04/24 10:30:14;;;;;;;5.30;4.80;;;17.80;67.40;;;;;;5095989;28;20465;-65
2022/04/24 10:32:44;;;;;;;4.93;4.57;;;17.90;67.40;;;;;;5095187;28;20470;-65
2022/04/24 10:35:17;;;;;;;9.30;5.07;;;18.00;67.10;;;;;;5095691;28;21011;-64
2022/04/24 10:37:45;;;;;;;5.30;4.90;;;18.00;66.30;;;;;;5095350;28;20834;-65
2022/04/24 10:40:18;;;;;;;8.73;5.90;;;18.00;66.30;;;;;;5095680;28;21044;-65
2022/04/24 10:42:45;;;;;;;7.00;4.63;;;18.10;66.30;;;;;;5095238;28;20461;-64
2022/04/24 10:45:14;;;;;;;6.33;5.70;;;18.20;67.10;;;;;;5095590;28;20468;-65
2022/04/24 10:47:47;;;;;;;6.43;5.93;;;18.20;66.40;;;;;;5095252;28;20472;-65
2022/04/24 10:50:15;;;;;;;6.80;6.10;;;18.20;66.90;;;;;;5095143;28;21054;-64
2022/04/24 10:52:44;;;;;;;6.07;5.57;;;18.20;67.20;;;;;;5094864;28;20811;-65
2022/04/24 10:55:14;;;;;;;6.07;5.57;;;18.20;67.70;;;;;;5095485;28;21139;-64
2022/04/24 10:57:43;;;;;;;6.13;5.63;;;18.20;67.60;;;;;;5095013;28;20811;-65
2022/04/24 11:00:22;;;;;;;6.63;4.80;;;18.20;67.70;;;;;;5095029;28;20468;-63
2022/04/24 11:02:49;;;;;;;6.93;6.27;;;18.20;68.40;;;;;;5094717;28;20464;-64
2022/04/24 11:05:21;;;;;;;6.10;5.50;;;18.20;68.40;;;;;;5095356;28;20471;-65
2022/04/24 11:07:48;;;;;;;6.63;5.73;;;18.20;68.80;;;;;;5094692;28;20469;-65
2022/04/24 11:10:21;;;;;;;6.30;5.10;;;18.20;69.20;;;;;;5095146;28;20468;-64
2022/04/24 11:12:54;;;;;;;7.43;5.47;;;18.20;68.00;;;;;;5094552;28;20868;-64
2022/04/24 11:15:21;;;;;;;5.70;5.30;;;18.20;67.30;;;;;;5095099;28;20500;-64
2022/04/24 11:17:48;;;;;;;5.40;5.00;;;18.20;66.50;;;;;;5094321;28;20989;-65
2022/04/24 11:20:16;;;;;;;6.27;5.23;;;18.00;67.20;;;;;;5094919;28;20954;-65
2022/04/24 11:22:47;;;;;;;10.10;5.43;;;18.00;66.50;;;;;;5094320;28;20476;-65
2022/04/24 11:25:15;;;;;;;5.23;4.83;;;17.90;65.90;;;;;;5094863;28;20573;-64
2022/04/24 11:27:43;;;;;;;5.90;5.33;;;17.90;65.90;;;;;;5094432;28;20549;-65
2022/04/24 11:30:20;;;;;;;5.97;5.37;;;17.90;65.60;;;;;;5094360;28;20468;-64
2022/04/24 11:32:58;;;;;;;5.43;4.90;;;17.80;65.20;;;;;;5093888;28;20472;-64
2022/04/24 11:35:26;;;;;;;5.13;4.63;;;17.80;65.20;;;;;;5094705;28;20453;-65
2022/04/24 11:37:55;;;;;;;4.67;4.23;;;17.80;65.00;;;;;;5094276;28;20469;-64
2022/04/24 11:40:22;;;;;;;8.47;4.53;;;17.80;64.50;;;;;;5094568;28;20465;-65
2022/04/24 11:42:49;;;;;;;4.70;4.30;;;17.80;63.70;;;;;;5093896;28;20460;-64
2022/04/24 11:50:51;;;;;;;4.60;4.20;;;17.90;62.60;;;;;;5093711;28;20567;-64
2022/04/24 11:53:20;;;;;;;4.67;4.37;;;17.80;60.80;;;;;;5094294;28;20460;-64
2022/04/24 11:56:02;;;;;;;4.40;4.00;;;17.90;62.10;;;;;;5093840;28;20521;-64
2022/04/24 11:58:34;;;;;;;5.10;4.60;;;17.90;62.20;;;;;;5093826;28;20480;-64
2022/04/24 12:01:03;;;;;;;7.00;5.10;;;17.90;60.70;;;;;;5093412;28;20476;-65
2022/04/24 12:03:30;;;;;;;4.30;3.90;;;17.90;60.40;;;;;;5092853;28;20477;-64
2022/04/24 12:05:59;;;;;;;4.50;3.70;;;17.80;60.40;;;;;;5093475;28;20522;-64
2022/04/24 12:08:26;;;;;;;5.87;4.60;;;17.90;60.50;;;;;;5093922;28;20530;-65
2022/04/24 12:10:53;;;;;;;6.20;4.47;;;17.80;59.70;;;;;;5093368;28;20478;-65
2022/04/24 12:13:22;;;;;;;5.43;4.93;;;17.90;59.90;;;;;;5093730;28;20794;-65
2022/04/24 12:15:53;;;;;;;6.93;3.80;;;17.90;59.70;;;;;;5093528;28;20841;-64
2022/04/24 12:18:27;;;;;;;5.30;3.87;;;17.80;59.40;;;;;;5093770;28;20546;-64
2022/04/24 12:20:54;;;;;;;4.83;4.10;;;17.70;59.70;;;;;;5093132;28;20543;-63
2022/04/24 12:23:22;;;;;;;4.57;4.17;;;17.60;59.70;;;;;;5093898;28;20478;-64
2022/04/24 12:25:50;;;;;;;4.90;3.90;;;17.70;59.80;;;;;;5093250;28;20503;-63
2022/04/24 12:28:32;;;;;;;3.90;3.50;;;17.70;59.90;;;;;;5093489;28;20476;-64
2022/04/24 12:31:01;;;;;;;6.23;4.07;;;17.90;60.00;;;;;;5092972;28;20468;-64
2022/04/24 12:33:30;;;;;;;3.97;3.67;;;17.90;59.40;;;;;;5093693;28;20803;-64
2022/04/24 12:36:08;;;;;;;4.13;3.83;;;18.00;59.40;;;;;;5093074;28;20784;-63
2022/04/24 12:38:34;;;;;;;4.23;3.80;;;18.10;58.90;;;;;;5077904;28;20473;-65
2022/04/24 12:41:02;;;;;;;3.67;3.30;;;18.20;58.50;;;;;;5087725;28;20494;-63
2022/04/24 12:43:30;;;;;;;5.27;4.73;;;18.30;57.90;;;;;;5091833;28;20473;-63
2022/04/24 12:45:58;;;;;;;4.30;3.90;;;18.40;57.50;;;;;;5092496;28;20461;-64
2022/04/24 12:48:25;;;;;;;3.57;3.33;;;18.40;57.20;;;;;;5090181;28;20485;-64
2022/04/24 12:50:55;;;;;;;4.03;3.77;;;18.40;56.50;;;;;;5081295;28;20478;-64
2022/04/24 12:53:23;;;;;;;3.53;3.33;;;18.40;56.40;;;;;;5071237;28;20465;-64
2022/04/24 12:55:51;;;;;;;4.70;3.33;;;18.40;56.00;;;;;;5072147;28;20465;-65